KROC/ROC METAR and TAF weather

Enter ICAO airport designator
Station Type Date Time Source
KROC METAR 2020/02/19 10:54 UTC NOAA

KROC 191054Z 29011KT 9SM -SN OVC033 M01/M08 A3020 RMK AO2 SLP234 P0000 T10061078


Station Type Date Time Source
KROC Decoded METAR 2020/02/19 10:54 UTC NOAA

GREATER ROCHESTER INTERNATIONAL , NY, United States (KROC) 43-07N 077-41W 178M
Feb 19, 2020 - 05:54 AM EST / 2020.02.19 1054 UTC
Wind: from the WNW (290 degrees) at 13 MPH (11 KT):0
Visibility: 9 mile(s):0
Sky conditions: overcast
Weather: light snow
Precipitation last hour: A trace
Temperature: 30.9 F (-0.6 C)
Windchill: 21 F (-6 C):1
Dew Point: 18.0 F (-7.8 C)
Relative Humidity: 58%
Pressure (altimeter): 30.2 in. Hg (1022 hPa)
ob: KROC 191054Z 29011KT 9SM -SN OVC033 M01/M08 A3020 RMK AO2 SLP234 P0000 T10061078
cycle: 11

Station Type Date Time Source
KROC TAF 2020/02/19 12:30 UTC NOAA

TAF KROC 191129Z 1912/2012 28012KT 6SM -SN BR OVC035
FM191300 29012G24KT 2SM -SN BR OVC025
FM191600 31013G23KT 6SM BR OVC035
FM192000 28010G19KT P6SM VCSH BKN040
FM201000 27009KT P6SM BKN030

Example: see airport list